PWSweather.com
Personal Weather Stations
Station Observations
BRISTOL
HorfieldFilton, BristolGB BS7

HorfieldFiltonBristolGB BS7

Lat: 51.5, Lon: -2.576

Elevation: 272

Station Type: Davis VP2

http://www.martynhicks.co.uk/weather/data.php

Latest ConditionsUpdated 6:00:01 PM GMT Sunday, Feb 1, 2015
Currently Today's Max Today's Min Today's Average
Temperature 37.5°F3.1°C 42.3°F5.7°C 36.5°F2.5°C 39.1°F3.9°C
Dew Point 27.9°F-2.3°C 31.3°F-0.4°C 27.7°F-2.4°C 29.5°F-1.4°C
Winds Calm Calm 9.0 mph NNW14.5 kmh NNW - 4.5 mph 7.2 kmh
Wind Gusts -- 19.0 mph30.6 kmh - -
Humidity 68% 77% 60% 68%
Pressure 29.71 in1006.1 mb 29.71 in1006.1 mb 29.47 in998.0 mb -
Hour Temp Dew Point Humidity Winds Wind Gusts Pressure Precip Precip Rate Daily Precip Total
06:00 PM 37.5°F3.1°C 27.9°F-2.3°C 68% Calm Calm -- 29.71 in1006.1 mb 0.00 in0.0 mm 0.00 in/hr0.0 mm/hr 0.00 in0.0 mm
05:50 PM 37.7°F3.2°C 27.7°F-2.4°C 67% 0.5 mph N0.8 kmh N 2.0 mph3.2 kmh 29.71 in1006.1 mb 0.00 in0.0 mm 0.00 in/hr0.0 mm/hr 0.00 in0.0 mm
05:40 PM 37.8°F3.2°C 28.2°F-2.1°C 68% 0.2 mph N0.3 kmh N 2.0 mph3.2 kmh 29.71 in1006.1 mb 0.00 in0.0 mm 0.00 in/hr0.0 mm/hr 0.00 in0.0 mm
05:30 PM 37.8°F3.2°C 28.2°F-2.1°C 68% 0.1 mph N0.2 kmh N 1.0 mph1.6 kmh 29.71 in1006.1 mb 0.00 in0.0 mm 0.00 in/hr0.0 mm/hr 0.00 in0.0 mm
05:20 PM 37.7°F3.2°C 28.1°F-2.2°C 68% 0.2 mph N0.3 kmh N 1.0 mph1.6 kmh 29.71 in1006.1 mb 0.00 in0.0 mm 0.00 in/hr0.0 mm/hr 0.00 in0.0 mm
05:10 PM 37.9°F3.3°C 28.3°F-2.1°C 68% 0.2 mph N0.3 kmh N 1.0 mph1.6 kmh 29.70 in1005.8 mb 0.00 in0.0 mm 0.00 in/hr0.0 mm/hr 0.00 in0.0 mm
05:00 PM 38.6°F3.7°C 28.6°F-1.9°C 67% 0.1 mph N0.2 kmh N 1.0 mph1.6 kmh 29.70 in1005.8 mb 0.00 in0.0 mm 0.00 in/hr0.0 mm/hr 0.00 in0.0 mm
04:50 PM 38.8°F3.8°C 28.4°F-2.0°C 66% 0.7 mph N1.1 kmh N 3.0 mph4.8 kmh 29.70 in1005.8 mb 0.00 in0.0 mm 0.00 in/hr0.0 mm/hr 0.00 in0.0 mm
04:40 PM 39.1°F3.9°C 28.3°F-2.1°C 65% 0.9 mph NNW1.4 kmh NNW 3.0 mph4.8 kmh 29.69 in1005.4 mb 0.00 in0.0 mm 0.00 in/hr0.0 mm/hr 0.00 in0.0 mm
04:30 PM 39.8°F4.3°C 28.2°F-2.1°C 63% 0.6 mph NW1.0 kmh NW 1.0 mph1.6 kmh 29.69 in1005.4 mb 0.00 in0.0 mm 0.00 in/hr0.0 mm/hr 0.00 in0.0 mm
04:20 PM 40.1°F4.5°C 28.5°F-1.9°C 63% 1.9 mph NW3.1 kmh NW 8.0 mph12.9 kmh 29.69 in1005.4 mb 0.00 in0.0 mm 0.00 in/hr0.0 mm/hr 0.00 in0.0 mm
04:10 PM 40.2°F4.6°C 28.2°F-2.1°C 62% 1.4 mph NW2.3 kmh NW 6.0 mph9.7 kmh 29.69 in1005.4 mb 0.00 in0.0 mm 0.00 in/hr0.0 mm/hr 0.00 in0.0 mm
04:00 PM 40.5°F4.7°C 28.5°F-1.9°C 62% 1.4 mph NW2.3 kmh NW 4.0 mph6.4 kmh 29.69 in1005.4 mb 0.00 in0.0 mm 0.00 in/hr0.0 mm/hr 0.00 in0.0 mm
03:50 PM 40.6°F4.8°C 28.2°F-2.1°C 61% 3.0 mph NNW4.8 kmh NNW 12.0 mph19.3 kmh 29.68 in1005.1 mb 0.00 in0.0 mm 0.00 in/hr0.0 mm/hr 0.00 in0.0 mm
03:40 PM 40.8°F4.9°C 28.4°F-2.0°C 61% 3.8 mph NNW6.1 kmh NNW 8.0 mph12.9 kmh 29.68 in1005.1 mb 0.00 in0.0 mm 0.00 in/hr0.0 mm/hr 0.00 in0.0 mm
03:30 PM 41.0°F5.0°C 28.2°F-2.1°C 60% 3.9 mph N6.3 kmh N 9.0 mph14.5 kmh 29.68 in1005.1 mb 0.00 in0.0 mm 0.00 in/hr0.0 mm/hr 0.00 in0.0 mm
03:20 PM 41.0°F5.0°C 29.8°F-1.2°C 64% 3.2 mph NW5.1 kmh NW 5.0 mph8.0 kmh 29.68 in1005.1 mb 0.00 in0.0 mm 0.00 in/hr0.0 mm/hr 0.00 in0.0 mm
03:10 PM 40.9°F4.9°C 29.7°F-1.3°C 64% 1.6 mph NNW2.6 kmh NNW 11.0 mph17.7 kmh 29.68 in1005.1 mb 0.00 in0.0 mm 0.00 in/hr0.0 mm/hr 0.00 in0.0 mm
03:00 PM 41.0°F5.0°C 29.4°F-1.4°C 63% 3.5 mph N5.6 kmh N 8.0 mph12.9 kmh 29.68 in1005.1 mb 0.00 in0.0 mm 0.00 in/hr0.0 mm/hr 0.00 in0.0 mm
02:50 PM 41.7°F5.4°C 30.1°F-1.1°C 63% 2.1 mph NW3.4 kmh NW 14.0 mph22.5 kmh 29.68 in1005.1 mb 0.00 in0.0 mm 0.00 in/hr0.0 mm/hr 0.00 in0.0 mm
02:40 PM 42.3°F5.7°C 29.8°F-1.2°C 61% 2.9 mph NNW4.7 kmh NNW 8.0 mph12.9 kmh 29.68 in1005.1 mb 0.00 in0.0 mm 0.00 in/hr0.0 mm/hr 0.00 in0.0 mm
02:30 PM 41.9°F5.5°C 29.8°F-1.2°C 62% 6.1 mph NNE9.8 kmh NNE 10.0 mph16.1 kmh 29.67 in1004.7 mb 0.00 in0.0 mm 0.00 in/hr0.0 mm/hr 0.00 in0.0 mm
02:20 PM 41.4°F5.2°C 29.7°F-1.3°C 63% 3.7 mph N6.0 kmh N 8.0 mph12.9 kmh 29.67 in1004.7 mb 0.00 in0.0 mm 0.00 in/hr0.0 mm/hr 0.00 in0.0 mm
02:10 PM 41.6°F5.3°C 30.3°F-0.9°C 64% 4.6 mph N7.4 kmh N 10.0 mph16.1 kmh 29.67 in1004.7 mb 0.00 in0.0 mm 0.00 in/hr0.0 mm/hr 0.00 in0.0 mm
02:00 PM 41.5°F5.3°C 30.3°F-0.9°C 64% 1.7 mph N2.7 kmh N 5.0 mph8.0 kmh 29.67 in1004.7 mb 0.00 in0.0 mm 0.00 in/hr0.0 mm/hr 0.00 in0.0 mm
01:50 PM 41.6°F5.3°C 30.3°F-0.9°C 64% 5.1 mph N8.2 kmh N 10.0 mph16.1 kmh 29.67 in1004.7 mb 0.00 in0.0 mm 0.00 in/hr0.0 mm/hr 0.00 in0.0 mm
01:40 PM 41.5°F5.3°C 30.6°F-0.8°C 65% 2.9 mph N4.7 kmh N 6.0 mph9.7 kmh 29.67 in1004.7 mb 0.00 in0.0 mm 0.00 in/hr0.0 mm/hr 0.00 in0.0 mm
01:30 PM 41.3°F5.2°C 30.4°F-0.9°C 65% 3.3 mph NNW5.3 kmh NNW 8.0 mph12.9 kmh 29.67 in1004.7 mb 0.00 in0.0 mm 0.00 in/hr0.0 mm/hr 0.00 in0.0 mm
01:20 PM 41.2°F5.1°C 30.7°F-0.7°C 66% 3.0 mph NNE4.8 kmh NNE 11.0 mph17.7 kmh 29.66 in1004.4 mb 0.00 in0.0 mm 0.00 in/hr0.0 mm/hr 0.00 in0.0 mm
01:10 PM 41.1°F5.1°C 29.8°F-1.2°C 64% 5.3 mph NNW8.5 kmh NNW 11.0 mph17.7 kmh 29.66 in1004.4 mb 0.00 in0.0 mm 0.00 in/hr0.0 mm/hr 0.00 in0.0 mm
01:00 PM 41.1°F5.1°C 30.2°F-1.0°C 65% 4.0 mph NNW6.4 kmh NNW 10.0 mph16.1 kmh 29.66 in1004.4 mb 0.00 in0.0 mm 0.00 in/hr0.0 mm/hr 0.00 in0.0 mm
12:50 PM 41.0°F5.0°C 30.5°F-0.8°C 66% 2.4 mph N3.9 kmh N 12.0 mph19.3 kmh 29.66 in1004.4 mb 0.00 in0.0 mm 0.00 in/hr0.0 mm/hr 0.00 in0.0 mm
12:40 PM 40.9°F4.9°C 31.1°F-0.5°C 68% 3.3 mph N5.3 kmh N 8.0 mph12.9 kmh 29.66 in1004.4 mb 0.00 in0.0 mm 0.00 in/hr0.0 mm/hr 0.00 in0.0 mm
12:30 PM 40.4°F4.7°C 30.7°F-0.7°C 68% 3.9 mph NW6.3 kmh NW 12.0 mph19.3 kmh 29.66 in1004.4 mb 0.00 in0.0 mm 0.00 in/hr0.0 mm/hr 0.00 in0.0 mm
12:20 PM 40.5°F4.7°C 30.8°F-0.7°C 68% 5.2 mph NW8.4 kmh NW 11.0 mph17.7 kmh 29.66 in1004.4 mb 0.00 in0.0 mm 0.00 in/hr0.0 mm/hr 0.00 in0.0 mm
12:10 PM 40.6°F4.8°C 30.5°F-0.8°C 67% 5.1 mph N8.2 kmh N 6.0 mph9.7 kmh 29.66 in1004.4 mb 0.00 in0.0 mm 0.00 in/hr0.0 mm/hr 0.00 in0.0 mm
12:00 PM 40.8°F4.9°C 30.7°F-0.7°C 67% 4.6 mph N7.4 kmh N 13.0 mph20.9 kmh 29.66 in1004.4 mb 0.00 in0.0 mm 0.00 in/hr0.0 mm/hr 0.00 in0.0 mm
11:50 AM 41.0°F5.0°C 30.5°F-0.8°C 66% 6.8 mph NW10.9 kmh NW 12.0 mph19.3 kmh 29.65 in1004.1 mb 0.00 in0.0 mm 0.00 in/hr0.0 mm/hr 0.00 in0.0 mm
11:40 AM 41.1°F5.1°C 31.0°F-0.6°C 67% 7.3 mph NW11.7 kmh NW 13.0 mph20.9 kmh 29.65 in1004.1 mb 0.00 in0.0 mm 0.00 in/hr0.0 mm/hr 0.00 in0.0 mm
11:30 AM 41.0°F5.0°C 31.2°F-0.4°C 68% 5.4 mph N8.7 kmh N 17.0 mph27.4 kmh 29.65 in1004.1 mb 0.00 in0.0 mm 0.00 in/hr0.0 mm/hr 0.00 in0.0 mm
11:20 AM 41.3°F5.2°C 31.2°F-0.4°C 67% 3.6 mph NW5.8 kmh NW 12.0 mph19.3 kmh 29.65 in1004.1 mb 0.00 in0.0 mm 0.00 in/hr0.0 mm/hr 0.00 in0.0 mm
11:10 AM 41.5°F5.3°C 31.3°F-0.4°C 67% 5.4 mph NNW8.7 kmh NNW 17.0 mph27.4 kmh 29.64 in1003.7 mb 0.00 in0.0 mm 0.00 in/hr0.0 mm/hr 0.00 in0.0 mm
11:00 AM 41.5°F5.3°C 31.3°F-0.4°C 67% 3.4 mph NW5.5 kmh NW 12.0 mph19.3 kmh 29.64 in1003.7 mb 0.00 in0.0 mm 0.00 in/hr0.0 mm/hr 0.00 in0.0 mm
10:50 AM 41.0°F5.0°C 30.9°F-0.6°C 67% 5.6 mph NNW9.0 kmh NNW 10.0 mph16.1 kmh 29.63 in1003.4 mb 0.00 in0.0 mm 0.00 in/hr0.0 mm/hr 0.00 in0.0 mm
10:40 AM 40.9°F4.9°C 30.8°F-0.7°C 67% 5.2 mph NNW8.4 kmh NNW 8.0 mph12.9 kmh 29.63 in1003.4 mb 0.00 in0.0 mm 0.00 in/hr0.0 mm/hr 0.00 in0.0 mm
10:30 AM 40.9°F4.9°C 31.1°F-0.5°C 68% 6.7 mph NW10.8 kmh NW 14.0 mph22.5 kmh 29.63 in1003.4 mb 0.00 in0.0 mm 0.00 in/hr0.0 mm/hr 0.00 in0.0 mm
10:20 AM 40.5°F4.7°C 31.1°F-0.5°C 69% 3.8 mph NW6.1 kmh NW 13.0 mph20.9 kmh 29.62 in1003.0 mb 0.00 in0.0 mm 0.00 in/hr0.0 mm/hr 0.00 in0.0 mm
10:10 AM 39.7°F4.3°C 30.7°F-0.7°C 70% 6.0 mph NW9.7 kmh NW 9.0 mph14.5 kmh 29.62 in1003.0 mb 0.00 in0.0 mm 0.00 in/hr0.0 mm/hr 0.00 in0.0 mm
10:00 AM 38.9°F3.8°C 30.3°F-0.9°C 71% 3.9 mph NW6.3 kmh NW 14.0 mph22.5 kmh 29.62 in1003.0 mb 0.00 in0.0 mm 0.00 in/hr0.0 mm/hr 0.00 in0.0 mm
09:50 AM 38.7°F3.7°C 30.1°F-1.1°C 71% 4.4 mph NNW7.1 kmh NNW 11.0 mph17.7 kmh 29.61 in1002.7 mb 0.00 in0.0 mm 0.00 in/hr0.0 mm/hr 0.00 in0.0 mm
09:40 AM 38.9°F3.8°C 30.0°F-1.1°C 70% 4.5 mph N7.2 kmh N 10.0 mph16.1 kmh 29.61 in1002.7 mb 0.00 in0.0 mm 0.00 in/hr0.0 mm/hr 0.00 in0.0 mm
09:30 AM 39.0°F3.9°C 30.0°F-1.1°C 70% 5.2 mph NW8.4 kmh NW 9.0 mph14.5 kmh 29.61 in1002.7 mb 0.00 in0.0 mm 0.00 in/hr0.0 mm/hr 0.00 in0.0 mm
09:20 AM 38.6°F3.7°C 30.3°F-0.9°C 72% 4.4 mph N7.1 kmh N 12.0 mph19.3 kmh 29.61 in1002.7 mb 0.00 in0.0 mm 0.00 in/hr0.0 mm/hr 0.00 in0.0 mm
09:10 AM 38.4°F3.6°C 30.5°F-0.8°C 73% 3.3 mph NW5.3 kmh NW 5.0 mph8.0 kmh 29.60 in1002.4 mb 0.00 in0.0 mm 0.00 in/hr0.0 mm/hr 0.00 in0.0 mm
09:00 AM 38.2°F3.4°C 30.3°F-0.9°C 73% 4.3 mph N6.9 kmh N 11.0 mph17.7 kmh 29.60 in1002.4 mb 0.00 in0.0 mm 0.00 in/hr0.0 mm/hr 0.00 in0.0 mm
08:50 AM 38.3°F3.5°C 30.1°F-1.1°C 72% 4.1 mph NW6.6 kmh NW 13.0 mph20.9 kmh 29.59 in1002.0 mb 0.00 in0.0 mm 0.00 in/hr0.0 mm/hr 0.00 in0.0 mm
08:40 AM 38.4°F3.6°C 29.8°F-1.2°C 71% 5.1 mph N8.2 kmh N 11.0 mph17.7 kmh 29.59 in1002.0 mb 0.00 in0.0 mm 0.00 in/hr0.0 mm/hr 0.00 in0.0 mm
08:30 AM 38.4°F3.6°C 29.5°F-1.4°C 70% 5.7 mph NW9.2 kmh NW 9.0 mph14.5 kmh 29.59 in1002.0 mb 0.00 in0.0 mm 0.00 in/hr0.0 mm/hr 0.00 in0.0 mm
08:20 AM 38.6°F3.7°C 28.9°F-1.7°C 68% 5.2 mph N8.4 kmh N 16.0 mph25.7 kmh 29.58 in1001.7 mb 0.00 in0.0 mm 0.00 in/hr0.0 mm/hr 0.00 in0.0 mm
08:10 AM 38.8°F3.8°C 29.1°F-1.6°C 68% 7.7 mph NW12.4 kmh NW 17.0 mph27.4 kmh 29.58 in1001.7 mb 0.00 in0.0 mm 0.00 in/hr0.0 mm/hr 0.00 in0.0 mm
08:00 AM 38.7°F3.7°C 28.7°F-1.8°C 67% 5.9 mph N9.5 kmh N 10.0 mph16.1 kmh 29.57 in1001.4 mb 0.00 in0.0 mm 0.00 in/hr0.0 mm/hr 0.00 in0.0 mm
07:50 AM 38.5°F3.6°C 28.5°F-1.9°C 67% 5.0 mph NW8.0 kmh NW 10.0 mph16.1 kmh 29.56 in1001.0 mb 0.00 in0.0 mm 0.00 in/hr0.0 mm/hr 0.00 in0.0 mm
07:40 AM 38.5°F3.6°C 28.1°F-2.2°C 66% 9.0 mph NNW14.5 kmh NNW 18.0 mph29.0 kmh 29.55 in1000.7 mb 0.00 in0.0 mm 0.00 in/hr0.0 mm/hr 0.00 in0.0 mm
07:30 AM 38.8°F3.8°C 28.4°F-2.0°C 66% 5.5 mph NNW8.9 kmh NNW 10.0 mph16.1 kmh 29.55 in1000.7 mb 0.00 in0.0 mm 0.00 in/hr0.0 mm/hr 0.00 in0.0 mm
07:20 AM 38.8°F3.8°C 28.4°F-2.0°C 66% 5.2 mph NW8.4 kmh NW 10.0 mph16.1 kmh 29.55 in1000.7 mb 0.00 in0.0 mm 0.00 in/hr0.0 mm/hr 0.00 in0.0 mm
07:10 AM 38.8°F3.8°C 28.4°F-2.0°C 66% 5.4 mph N8.7 kmh N 16.0 mph25.7 kmh 29.55 in1000.7 mb 0.00 in0.0 mm 0.00 in/hr0.0 mm/hr 0.00 in0.0 mm
07:00 AM 39.0°F3.9°C 28.6°F-1.9°C 66% 5.8 mph NW9.3 kmh NW 19.0 mph30.6 kmh 29.54 in1000.3 mb 0.00 in0.0 mm 0.00 in/hr0.0 mm/hr 0.00 in0.0 mm
06:50 AM 39.2°F4.0°C 28.5°F-1.9°C 65% 4.5 mph N7.2 kmh N 10.0 mph16.1 kmh 29.54 in1000.3 mb 0.00 in0.0 mm 0.00 in/hr0.0 mm/hr 0.00 in0.0 mm
06:40 AM 39.2°F4.0°C 28.4°F-2.0°C 65% 5.2 mph NNW8.4 kmh NNW 13.0 mph20.9 kmh 29.54 in1000.3 mb 0.00 in0.0 mm 0.00 in/hr0.0 mm/hr 0.00 in0.0 mm
06:30 AM 39.1°F3.9°C 28.7°F-1.8°C 66% 6.3 mph N10.1 kmh N 10.0 mph16.1 kmh 29.53 in1000.0 mb 0.00 in0.0 mm 0.00 in/hr0.0 mm/hr 0.00 in0.0 mm
06:20 AM 39.0°F3.9°C 28.6°F-1.9°C 66% 7.2 mph W11.6 kmh W 14.0 mph22.5 kmh 29.53 in1000.0 mb 0.00 in0.0 mm 0.00 in/hr0.0 mm/hr 0.00 in0.0 mm
06:10 AM 38.8°F3.8°C 28.8°F-1.8°C 67% 6.1 mph N9.8 kmh N 13.0 mph20.9 kmh 29.53 in1000.0 mb 0.00 in0.0 mm 0.00 in/hr0.0 mm/hr 0.00 in0.0 mm
06:00 AM 38.8°F3.8°C 29.1°F-1.6°C 68% 4.8 mph NW7.7 kmh NW 9.0 mph14.5 kmh 29.53 in1000.0 mb 0.00 in0.0 mm 0.00 in/hr0.0 mm/hr 0.00 in0.0 mm
05:50 AM 38.7°F3.7°C 29.4°F-1.4°C 69% 5.3 mph NW8.5 kmh NW 18.0 mph29.0 kmh 29.53 in1000.0 mb 0.00 in0.0 mm 0.00 in/hr0.0 mm/hr 0.00 in0.0 mm
05:40 AM 38.4°F3.6°C 29.5°F-1.4°C 70% 6.8 mph WSW10.9 kmh WSW 16.0 mph25.7 kmh 29.52 in999.7 mb 0.00 in0.0 mm 0.00 in/hr0.0 mm/hr 0.00 in0.0 mm
05:30 AM 38.4°F3.6°C 29.5°F-1.4°C 70% 5.6 mph WNW9.0 kmh WNW 11.0 mph17.7 kmh 29.52 in999.7 mb 0.00 in0.0 mm 0.00 in/hr0.0 mm/hr 0.00 in0.0 mm
05:20 AM 38.5°F3.6°C 29.6°F-1.3°C 70% 4.4 mph NW7.1 kmh NW 13.0 mph20.9 kmh 29.52 in999.7 mb 0.00 in0.0 mm 0.00 in/hr0.0 mm/hr 0.00 in0.0 mm
05:10 AM 38.5°F3.6°C 29.6°F-1.3°C 70% 8.0 mph W12.9 kmh W 16.0 mph25.7 kmh 29.52 in999.7 mb 0.00 in0.0 mm 0.00 in/hr0.0 mm/hr 0.00 in0.0 mm
05:00 AM 38.4°F3.6°C 29.8°F-1.2°C 71% 6.3 mph NNW10.1 kmh NNW 14.0 mph22.5 kmh 29.52 in999.7 mb 0.00 in0.0 mm 0.00 in/hr0.0 mm/hr 0.00 in0.0 mm
04:50 AM 38.4°F3.6°C 29.8°F-1.2°C 71% 8.3 mph WNW13.4 kmh WNW 14.0 mph22.5 kmh 29.52 in999.7 mb 0.00 in0.0 mm 0.00 in/hr0.0 mm/hr 0.00 in0.0 mm
04:40 AM 38.3°F3.5°C 29.7°F-1.3°C 71% 5.1 mph WNW8.2 kmh WNW 10.0 mph16.1 kmh 29.52 in999.7 mb 0.00 in0.0 mm 0.00 in/hr0.0 mm/hr 0.00 in0.0 mm
04:30 AM 38.4°F3.6°C 29.4°F-1.4°C 70% 6.4 mph WNW10.3 kmh WNW 14.0 mph22.5 kmh 29.51 in999.3 mb 0.00 in0.0 mm 0.00 in/hr0.0 mm/hr 0.00 in0.0 mm
04:20 AM 38.4°F3.6°C 29.1°F-1.6°C 69% 6.0 mph NW9.7 kmh NW 11.0 mph17.7 kmh 29.51 in999.3 mb 0.00 in0.0 mm 0.00 in/hr0.0 mm/hr 0.00 in0.0 mm
04:10 AM 38.2°F3.4°C 29.3°F-1.5°C 70% 6.7 mph NW10.8 kmh NW 12.0 mph19.3 kmh 29.51 in999.3 mb 0.00 in0.0 mm 0.00 in/hr0.0 mm/hr 0.00 in0.0 mm
04:00 AM 38.2°F3.4°C 29.6°F-1.3°C 71% 4.8 mph NW7.7 kmh NW 10.0 mph16.1 kmh 29.51 in999.3 mb 0.00 in0.0 mm 0.00 in/hr0.0 mm/hr 0.00 in0.0 mm
03:50 AM 38.0°F3.3°C 29.4°F-1.4°C 71% 6.2 mph NW10.0 kmh NW 8.0 mph12.9 kmh 29.50 in999.0 mb 0.00 in0.0 mm 0.00 in/hr0.0 mm/hr 0.00 in0.0 mm
03:40 AM 37.7°F3.2°C 29.1°F-1.6°C 71% 5.6 mph NNW9.0 kmh NNW 15.0 mph24.1 kmh 29.50 in999.0 mb 0.00 in0.0 mm 0.00 in/hr0.0 mm/hr 0.00 in0.0 mm
03:30 AM 37.6°F3.1°C 29.4°F-1.4°C 72% 6.8 mph WNW10.9 kmh WNW 12.0 mph19.3 kmh 29.49 in998.6 mb 0.00 in0.0 mm 0.00 in/hr0.0 mm/hr 0.00 in0.0 mm
03:20 AM 37.7°F3.2°C 29.1°F-1.6°C 71% 6.2 mph NW10.0 kmh NW 8.0 mph12.9 kmh 29.49 in998.6 mb 0.00 in0.0 mm 0.00 in/hr0.0 mm/hr 0.00 in0.0 mm
03:10 AM 37.8°F3.2°C 29.2°F-1.6°C 71% 6.4 mph NW10.3 kmh NW 9.0 mph14.5 kmh 29.49 in998.6 mb 0.00 in0.0 mm 0.00 in/hr0.0 mm/hr 0.00 in0.0 mm
03:00 AM 37.7°F3.2°C 29.1°F-1.6°C 71% 5.2 mph NNW8.4 kmh NNW 12.0 mph19.3 kmh 29.49 in998.6 mb 0.00 in0.0 mm 0.00 in/hr0.0 mm/hr 0.00 in0.0 mm
02:50 AM 37.4°F3.0°C 29.2°F-1.6°C 72% 6.1 mph NW9.8 kmh NW 14.0 mph22.5 kmh 29.49 in998.6 mb 0.00 in0.0 mm 0.00 in/hr0.0 mm/hr 0.00 in0.0 mm
02:40 AM 37.1°F2.8°C 29.2°F-1.6°C 73% 5.1 mph NW8.2 kmh NW 14.0 mph22.5 kmh 29.49 in998.6 mb 0.00 in0.0 mm 0.00 in/hr0.0 mm/hr 0.00 in0.0 mm
02:30 AM 37.1°F2.8°C 28.9°F-1.7°C 72% 5.7 mph NW9.2 kmh NW 11.0 mph17.7 kmh 29.48 in998.3 mb 0.00 in0.0 mm 0.00 in/hr0.0 mm/hr 0.00 in0.0 mm
02:20 AM 37.0°F2.8°C 28.8°F-1.8°C 72% 5.8 mph NW9.3 kmh NW 9.0 mph14.5 kmh 29.48 in998.3 mb 0.00 in0.0 mm 0.00 in/hr0.0 mm/hr 0.00 in0.0 mm
02:10 AM 37.0°F2.8°C 28.8°F-1.8°C 72% 7.3 mph NW11.7 kmh NW 15.0 mph24.1 kmh 29.48 in998.3 mb 0.00 in0.0 mm 0.00 in/hr0.0 mm/hr 0.00 in0.0 mm
02:00 AM 36.9°F2.7°C 29.1°F-1.6°C 73% 6.3 mph NW10.1 kmh NW 13.0 mph20.9 kmh 29.48 in998.3 mb 0.00 in0.0 mm 0.00 in/hr0.0 mm/hr 0.00 in0.0 mm
01:50 AM 36.8°F2.7°C 29.0°F-1.7°C 73% 4.2 mph NW6.8 kmh NW 11.0 mph17.7 kmh 29.48 in998.3 mb 0.00 in0.0 mm 0.00 in/hr0.0 mm/hr 0.00 in0.0 mm
01:40 AM 36.8°F2.7°C 29.3°F-1.5°C 74% 4.9 mph NW7.9 kmh NW 14.0 mph22.5 kmh 29.47 in998.0 mb 0.00 in0.0 mm 0.00 in/hr0.0 mm/hr 0.00 in0.0 mm
01:30 AM 36.7°F2.6°C 29.5°F-1.4°C 75% 4.5 mph NW7.2 kmh NW 12.0 mph19.3 kmh 29.48 in998.3 mb 0.00 in0.0 mm 0.00 in/hr0.0 mm/hr 0.00 in0.0 mm
01:20 AM 36.8°F2.7°C 29.9°F-1.2°C 76% 5.0 mph NW8.0 kmh NW 14.0 mph22.5 kmh 29.48 in998.3 mb 0.00 in0.0 mm 0.00 in/hr0.0 mm/hr 0.00 in0.0 mm
01:10 AM 36.6°F2.6°C 29.7°F-1.3°C 76% 5.9 mph NW9.5 kmh NW 10.0 mph16.1 kmh 29.47 in998.0 mb 0.00 in0.0 mm 0.00 in/hr0.0 mm/hr 0.00 in0.0 mm
01:00 AM 36.7°F2.6°C 29.8°F-1.2°C 76% 4.8 mph NW7.7 kmh NW 8.0 mph12.9 kmh 29.47 in998.0 mb 0.00 in0.0 mm 0.00 in/hr0.0 mm/hr 0.00 in0.0 mm
12:50 AM 36.6°F2.6°C 29.7°F-1.3°C 76% 5.5 mph NW8.9 kmh NW 12.0 mph19.3 kmh 29.47 in998.0 mb 0.00 in0.0 mm 0.00 in/hr0.0 mm/hr 0.00 in0.0 mm
12:40 AM 36.6°F2.6°C 30.1°F-1.1°C 77% 6.0 mph NW9.7 kmh NW 11.0 mph17.7 kmh 29.47 in998.0 mb 0.00 in0.0 mm 0.00 in/hr0.0 mm/hr 0.00 in0.0 mm
12:30 AM 36.7°F2.6°C 29.8°F-1.2°C 76% 5.0 mph NW8.0 kmh NW 10.0 mph16.1 kmh 29.47 in998.0 mb 0.00 in0.0 mm 0.00 in/hr0.0 mm/hr 0.00 in0.0 mm
12:20 AM 36.7°F2.6°C 29.5°F-1.4°C 75% 5.0 mph NW8.0 kmh NW 11.0 mph17.7 kmh 29.47 in998.0 mb 0.00 in0.0 mm 0.00 in/hr0.0 mm/hr 0.00 in0.0 mm
12:10 AM 36.6°F2.6°C 29.4°F-1.4°C 75% 5.8 mph N9.3 kmh N 10.0 mph16.1 kmh 29.48 in998.3 mb 0.00 in0.0 mm 0.00 in/hr0.0 mm/hr 0.00 in0.0 mm
12:00 AM 36.5°F2.5°C 29.6°F-1.3°C 76% 2.8 mph NW4.5 kmh NW 9.0 mph14.5 kmh 29.48 in998.3 mb 0.00 in0.0 mm 0.00 in/hr0.0 mm/hr 0.00 in0.0 mm